Time;durP1;ratioP1;P1;durP2;ratioP2;P2;SDS_P1;SDS_P2;PMS_P1;PMS_P2;Temp;Humidity;BMP_temperature;BMP_pressure;BME280_temperature;BME280_humidity;BME280_pressure;Samples;Min_cycle;Max_cycle;Signal;HPM_P1;HPM_P2
2022/02/23 00:00:13;;;;;;;9.77;3.47;;;;;;;4.14;100.00;101389.25;675897;29;1021;-51
2022/02/23 00:00:34;;;;;;;11.25;3.60;;;;;;;4.20;100.00;101390.34;675783;29;858;-54
2022/02/23 00:00:54;;;;;;;10.10;3.83;;;;;;;4.25;100.00;101391.38;675412;29;1017;-51
2022/02/23 00:01:15;;;;;;;10.77;3.63;;;;;;;4.22;100.00;101385.22;676371;29;976;-50
2022/02/23 00:01:35;;;;;;;10.68;3.80;;;;;;;4.20;100.00;101392.94;676007;29;985;-51
2022/02/23 00:01:55;;;;;;;9.27;3.90;;;;;;;4.15;100.00;101388.44;675046;29;4732;-55
2022/02/23 00:02:16;;;;;;;12.88;3.60;;;;;;;4.11;100.00;101390.03;675142;29;1154;-51
2022/02/23 00:02:36;;;;;;;11.80;3.70;;;;;;;4.14;100.00;101386.66;674459;29;962;-52
2022/02/23 00:02:57;;;;;;;11.25;3.65;;;;;;;4.15;100.00;101396.19;676020;29;972;-50
2022/02/23 00:03:17;;;;;;;11.27;3.63;;;;;;;4.20;100.00;101386.88;676177;29;921;-54
2022/02/23 00:03:37;;;;;;;12.27;3.60;;;;;;;4.17;100.00;101389.38;675504;29;926;-53
2022/02/23 00:04:01;;;;;;;9.77;3.53;;;;;;;4.13;100.00;101390.13;675083;29;893;-51
2022/02/23 00:04:22;;;;;;;9.30;3.35;;;;;;;4.08;100.00;101396.00;674920;29;2775;-50
2022/02/23 00:04:42;;;;;;;11.43;3.53;;;;;;;4.04;100.00;101391.56;677458;29;3504;-53
2022/02/23 00:05:03;;;;;;;10.38;3.67;;;;;;;4.05;100.00;101392.44;676729;29;4869;-54
2022/02/23 00:05:24;;;;;;;9.35;3.53;;;;;;;4.03;100.00;101388.91;674699;29;1108;-52
2022/02/23 00:05:45;;;;;;;9.52;3.45;;;;;;;4.01;100.00;101395.75;676020;29;1063;-54
2022/02/23 00:06:06;;;;;;;10.67;3.40;;;;;;;3.95;100.00;101393.81;673009;29;857;-53
2022/02/23 00:06:27;;;;;;;11.55;3.58;;;;;;;3.93;100.00;101395.47;673043;29;1940;-51
2022/02/23 00:06:48;;;;;;;10.55;3.55;;;;;;;3.91;100.00;101391.97;672578;29;1086;-51
2022/02/23 00:07:09;;;;;;;11.95;3.42;;;;;;;3.89;100.00;101397.09;674122;29;936;-51
2022/02/23 00:07:29;;;;;;;13.48;3.90;;;;;;;3.97;100.00;101396.47;675649;29;3376;-53
2022/02/23 00:07:49;;;;;;;9.83;3.53;;;;;;;4.05;100.00;101398.47;673582;29;4479;-51
2022/02/23 00:08:10;;;;;;;10.10;3.40;;;;;;;4.14;100.00;101395.34;674814;29;1522;-50
2022/02/23 00:08:30;;;;;;;9.47;3.10;;;;;;;4.09;100.00;101400.34;675987;29;837;-51
2022/02/23 00:08:51;;;;;;;10.55;3.30;;;;;;;4.10;100.00;101401.22;675710;29;1339;-51
2022/02/23 00:09:11;;;;;;;8.87;3.63;;;;;;;4.14;100.00;101403.09;675936;29;885;-52
2022/02/23 00:09:31;;;;;;;10.93;3.50;;;;;;;4.15;100.00;101403.97;675758;29;1124;-50
2022/02/23 00:09:53;;;;;;;9.27;3.67;;;;;;;4.13;100.00;101397.88;675745;29;1211;-50
2022/02/23 00:10:13;;;;;;;8.98;3.25;;;;;;;4.12;100.00;101401.28;675161;29;2006;-53
2022/02/23 00:10:34;;;;;;;10.57;3.10;;;;;;;4.06;100.00;101395.06;675075;29;3426;-51
2022/02/23 00:10:56;;;;;;;12.05;3.13;;;;;;;3.99;100.00;101398.28;673326;29;4842;-47
2022/02/23 00:11:16;;;;;;;8.75;3.28;;;;;;;3.98;100.00;101406.00;676473;29;920;-51
2022/02/23 00:11:37;;;;;;;7.95;3.47;;;;;;;4.00;100.00;101407.81;675996;29;1110;-54
2022/02/23 00:11:57;;;;;;;10.63;3.60;;;;;;;4.06;100.00;101400.25;676878;29;899;-52
2022/02/23 00:12:18;;;;;;;9.90;3.10;;;;;;;4.05;100.00;101397.59;678589;29;869;-52
2022/02/23 00:12:39;;;;;;;11.30;3.83;;;;;;;4.04;100.00;101404.50;677609;29;1039;-53
2022/02/23 00:12:59;;;;;;;12.80;3.97;;;;;;;4.07;100.00;101399.41;677492;29;4328;-53
2022/02/23 00:13:19;;;;;;;10.75;3.30;;;;;;;4.11;100.00;101407.28;677781;29;3399;-50
2022/02/23 00:13:40;;;;;;;10.10;3.40;;;;;;;4.06;100.00;101401.97;677379;29;1399;-50
2022/02/23 00:14:00;;;;;;;9.73;3.40;;;;;;;4.07;100.00;101401.09;674449;29;5000;-50
2022/02/23 00:14:21;;;;;;;11.18;3.53;;;;;;;4.03;100.00;101402.72;676163;29;794;-52
2022/02/23 00:14:41;;;;;;;9.60;3.23;;;;;;;4.02;100.00;101408.72;675265;29;1128;-51
2022/02/23 00:15:02;;;;;;;9.57;3.30;;;;;;;4.07;100.00;101404.59;675537;29;968;-51
2022/02/23 00:15:22;;;;;;;9.73;3.20;;;;;;;4.14;100.00;101404.78;674963;29;1191;-51
2022/02/23 00:15:43;;;;;;;11.37;4.03;;;;;;;4.16;100.00;101405.72;672953;29;914;-51
2022/02/23 00:16:05;;;;;;;9.07;4.00;;;;;;;4.12;100.00;101403.88;673092;29;3631;-50
2022/02/23 00:16:25;;;;;;;8.73;3.50;;;;;;;4.12;100.00;101404.75;672635;29;1668;-50
2022/02/23 00:16:46;;;;;;;10.07;3.30;;;;;;;4.07;100.00;101406.28;672079;29;4695;-50
2022/02/23 00:17:06;;;;;;;11.80;3.30;;;;;;;4.08;100.00;101406.38;670620;29;1195;-54
2022/02/23 00:17:26;;;;;;;9.07;3.10;;;;;;;4.03;100.00;101401.84;673091;29;1171;-51
2022/02/23 00:17:48;;;;;;;9.25;3.30;;;;;;;4.03;100.00;101401.84;676040;29;1293;-52
2022/02/23 00:18:12;;;;;;;10.60;3.50;;;;;;;4.09;100.00;101405.50;675819;29;921;-52
2022/02/23 00:18:32;;;;;;;10.93;3.30;;;;;;;4.14;100.00;101402.19;675854;29;961;-51
2022/02/23 00:18:53;;;;;;;10.67;3.30;;;;;;;4.13;100.00;101403.91;673061;29;3469;-50
2022/02/23 00:19:13;;;;;;;11.63;3.17;;;;;;;4.09;100.00;101402.91;675425;29;1277;-51
2022/02/23 00:19:33;;;;;;;12.32;3.58;;;;;;;4.07;100.00;101404.59;674881;29;1508;-52
2022/02/23 00:19:55;;;;;;;11.10;3.40;;;;;;;4.02;100.00;101403.53;674830;29;4362;-51
2022/02/23 00:20:16;;;;;;;9.38;3.58;;;;;;;4.02;100.00;101407.84;675741;29;968;-51
2022/02/23 00:20:36;;;;;;;10.90;3.90;;;;;;;4.10;100.00;101403.81;675131;29;1233;-50
2022/02/23 00:20:57;;;;;;;10.43;3.50;;;;;;;4.14;100.00;101403.09;675147;29;948;-51
2022/02/23 00:21:17;;;;;;;12.33;3.67;;;;;;;4.11;100.00;101402.97;675906;29;1162;-54
2022/02/23 00:21:38;;;;;;;11.97;3.33;;;;;;;4.06;100.00;101400.25;675190;29;3308;-50
2022/02/23 00:21:58;;;;;;;12.63;3.60;;;;;;;4.03;100.00;101405.31;674763;29;3561;-50
2022/02/23 00:22:18;;;;;;;10.87;3.40;;;;;;;3.97;100.00;101402.50;675091;29;1096;-51
2022/02/23 00:22:40;;;;;;;11.90;3.30;;;;;;;3.93;100.00;101405.81;675898;29;1070;-52
2022/02/23 00:23:01;;;;;;;12.40;3.20;;;;;;;3.98;100.00;101401.69;675596;29;5854;-52
2022/02/23 00:23:22;;;;;;;8.50;3.17;;;;;;;4.00;100.00;101402.63;675964;29;929;-54
2022/02/23 00:23:43;;;;;;;8.15;3.22;;;;;;;3.95;100.00;101404.19;674415;29;956;-51
2022/02/23 00:24:04;;;;;;;10.48;3.42;;;;;;;3.93;100.00;101408.41;676184;29;961;-51
2022/02/23 00:24:25;;;;;;;10.45;3.30;;;;;;;3.96;100.00;101403.34;675804;29;3354;-54
2022/02/23 00:24:46;;;;;;;10.43;3.10;;;;;;;4.03;100.00;101401.84;674975;29;3583;-50
2022/02/23 00:25:06;;;;;;;8.70;2.90;;;;;;;4.07;100.00;101404.59;675037;29;1535;-51
2022/02/23 00:25:27;;;;;;;10.18;2.85;;;;;;;4.12;100.00;101403.88;675894;29;1274;-53
2022/02/23 00:25:47;;;;;;;14.65;3.60;;;;;;;4.14;100.00;101403.09;675148;29;5014;-53
2022/02/23 00:26:08;;;;;;;11.37;3.33;;;;;;;4.14;100.00;101408.28;675747;29;917;-53
2022/02/23 00:26:28;;;;;;;11.68;3.50;;;;;;;4.05;100.00;101408.81;673517;29;1910;-54
2022/02/23 00:26:49;;;;;;;10.82;3.17;;;;;;;4.02;100.00;101407.84;674477;29;1358;-51
2022/02/23 00:27:09;;;;;;;9.07;3.00;;;;;;;3.99;100.00;101408.63;675827;29;862;-55
2022/02/23 00:27:29;;;;;;;10.30;3.70;;;;;;;4.02;100.00;101408.72;675295;29;3689;-55
2022/02/23 00:27:50;;;;;;;11.73;3.80;;;;;;;3.98;100.00;101406.84;675102;29;1318;-50
2022/02/23 00:28:10;;;;;;;10.50;3.20;;;;;;;3.99;100.00;101408.63;677534;29;1347;-53
2022/02/23 00:28:31;;;;;;;10.00;3.13;;;;;;;4.01;100.00;101408.69;678555;29;877;-53
2022/02/23 00:28:51;;;;;;;10.52;3.10;;;;;;;3.97;100.00;101410.25;674553;29;4526;-54
2022/02/23 00:29:14;;;;;;;11.93;3.40;;;;;;;3.96;100.00;101416.28;675826;29;751;-52
2022/02/23 00:29:35;;;;;;;10.67;3.30;;;;;;;3.96;100.00;101411.13;675386;29;1276;-50
2022/02/23 00:29:55;;;;;;;9.82;3.10;;;;;;;3.96;100.00;101413.69;675372;29;988;-50
2022/02/23 00:30:16;;;;;;;9.67;3.07;;;;;;;3.90;100.00;101414.38;675397;29;4093;-51
2022/02/23 00:30:36;;;;;;;10.77;3.28;;;;;;;3.91;100.00;101417.84;675150;29;1285;-51
2022/02/23 00:30:57;;;;;;;11.37;3.30;;;;;;;3.93;100.00;101418.75;675719;29;1199;-52
2022/02/23 00:31:17;;;;;;;10.32;3.10;;;;;;;3.88;100.00;101420.31;676071;29;876;-55
2022/02/23 00:31:38;;;;;;;10.10;3.10;;;;;;;3.88;100.00;101421.19;675747;29;1291;-52
2022/02/23 00:31:58;;;;;;;10.97;3.13;;;;;;;3.84;100.00;101416.72;675028;29;4742;-50
2022/02/23 00:32:19;;;;;;;11.13;3.28;;;;;;;3.84;100.00;101418.44;675998;29;854;-51
2022/02/23 00:32:42;;;;;;;10.57;3.10;;;;;;;3.86;100.00;101416.78;675559;29;1114;-53
2022/02/23 00:33:03;;;;;;;9.70;3.22;;;;;;;3.85;100.00;101420.19;675054;29;3401;-51
2022/02/23 00:33:23;;;;;;;9.03;3.50;;;;;;;3.83;100.00;101424.44;675574;29;1135;-51
2022/02/23 00:33:43;;;;;;;7.63;3.40;;;;;;;3.83;100.00;101417.56;675526;29;1462;-52
2022/02/23 00:34:04;;;;;;;9.43;3.20;;;;;;;3.81;100.00;101420.91;675789;29;779;-52
2022/02/23 00:34:24;;;;;;;8.68;3.15;;;;;;;3.80;100.00;101419.16;673194;29;1568;-50
2022/02/23 00:34:45;;;;;;;9.73;3.17;;;;;;;3.84;100.00;101415.88;669941;29;4590;-53
2022/02/23 00:35:05;;;;;;;10.10;3.20;;;;;;;3.89;100.00;101427.22;672385;29;1235;-50
2022/02/23 00:35:26;;;;;;;9.13;3.03;;;;;;;3.84;100.00;101423.63;673169;29;885;-54
2022/02/23 00:35:46;;;;;;;12.07;3.00;;;;;;;3.77;100.00;101427.69;671715;29;3263;-50
2022/02/23 00:36:07;;;;;;;11.97;3.10;;;;;;;3.72;100.00;101419.78;672783;29;3683;-52
2022/02/23 00:36:27;;;;;;;8.40;2.70;;;;;;;3.75;100.00;101422.47;675709;29;1291;-51
2022/02/23 00:36:47;;;;;;;9.60;2.88;;;;;;;3.71;100.00;101422.28;674757;29;1431;-52
2022/02/23 00:37:08;;;;;;;9.07;3.00;;;;;;;3.75;100.00;101425.06;676403;29;846;-51
2022/02/23 00:37:28;;;;;;;9.07;2.80;;;;;;;3.81;100.00;101428.66;676155;29;912;-52
2022/02/23 00:37:49;;;;;;;8.80;2.88;;;;;;;3.84;100.00;101423.63;675088;29;5907;-52
2022/02/23 00:38:09;;;;;;;11.70;3.43;;;;;;;3.88;100.00;101425.50;676227;29;775;-52
2022/02/23 00:38:29;;;;;;;13.07;3.35;;;;;;;3.88;100.00;101425.50;675412;29;1798;-50
2022/02/23 00:38:50;;;;;;;10.60;2.80;;;;;;;3.85;100.00;101428.84;672684;29;2174;-53
2022/02/23 00:39:10;;;;;;;9.95;3.03;;;;;;;3.81;100.00;101423.50;673372;29;1273;-57
2022/02/23 00:39:31;;;;;;;9.57;3.07;;;;;;;3.78;100.00;101433.75;672779;29;1288;-50
2022/02/23 00:39:51;;;;;;;10.15;3.10;;;;;;;3.69;100.00;101427.41;672832;29;1272;-51
2022/02/23 00:40:12;;;;;;;9.77;3.10;;;;;;;3.66;100.00;101429.03;673772;29;1392;-51
2022/02/23 00:40:33;;;;;;;10.48;3.03;;;;;;;3.63;100.00;101423.72;675799;29;917;-51
2022/02/23 00:40:53;;;;;;;11.98;3.00;;;;;;;3.58;100.00;101433.91;677119;29;4508;-52
2022/02/23 00:41:13;;;;;;;10.97;3.00;;;;;;;3.60;100.00;101427.09;677648;29;1809;-52
2022/02/23 00:41:33;;;;;;;10.50;3.10;;;;;;;3.62;100.00;101433.19;678266;29;3656;-50
2022/02/23 00:41:54;;;;;;;9.27;3.13;;;;;;;3.66;100.00;101431.63;677228;29;1387;-52
2022/02/23 00:42:15;;;;;;;10.70;3.17;;;;;;;3.67;100.00;101426.50;678497;29;1125;-50
2022/02/23 00:42:35;;;;;;;10.77;2.80;;;;;;;3.62;100.00;101433.19;678424;29;1008;-48
2022/02/23 00:42:57;;;;;;;13.97;3.13;;;;;;;3.58;100.00;101436.50;676565;29;848;-47
2022/02/23 00:43:17;;;;;;;11.52;3.20;;;;;;;3.53;100.00;101428.59;676771;29;893;-51
2022/02/23 00:43:37;;;;;;;10.80;3.53;;;;;;;3.54;100.00;101434.63;675845;29;1078;-48
2022/02/23 00:43:58;;;;;;;10.97;3.40;;;;;;;3.61;100.00;101426.25;675542;29;4821;-53
2022/02/23 00:44:18;;;;;;;10.57;3.10;;;;;;;3.65;100.00;101430.72;672440;29;3175;-50
2022/02/23 00:44:39;;;;;;;11.37;2.97;;;;;;;3.66;100.00;101429.91;672444;29;3748;-52
2022/02/23 00:44:59;;;;;;;12.55;3.10;;;;;;;3.65;100.00;101425.53;673098;29;1464;-51
2022/02/23 00:45:20;;;;;;;10.23;3.10;;;;;;;3.60;100.00;101431.38;673419;29;1387;-54
2022/02/23 00:45:40;;;;;;;8.30;2.80;;;;;;;3.57;100.00;101426.97;674996;29;1022;-51
2022/02/23 00:46:01;;;;;;;8.60;2.88;;;;;;;3.63;100.00;101427.22;676424;29;1049;-51
2022/02/23 00:46:21;;;;;;;11.00;3.00;;;;;;;3.69;100.00;101424.81;675880;29;1926;-53
2022/02/23 00:46:43;;;;;;;11.55;3.10;;;;;;;3.72;100.00;101429.22;676240;29;1132;-50
2022/02/23 00:47:04;;;;;;;11.73;3.00;;;;;;;3.68;100.00;101437.69;675658;29;4917;-52
2022/02/23 00:47:24;;;;;;;12.23;3.23;;;;;;;3.67;100.00;101434.25;676123;29;3648;-53
2022/02/23 00:47:44;;;;;;;10.30;3.00;;;;;;;3.68;100.00;101429.94;675709;29;1296;-51
2022/02/23 00:48:05;;;;;;;10.37;3.10;;;;;;;3.62;100.00;101428.03;673657;29;812;-53
2022/02/23 00:48:25;;;;;;;10.27;2.90;;;;;;;3.63;100.00;101427.22;673158;29;956;-53
2022/02/23 00:48:46;;;;;;;9.13;2.97;;;;;;;3.70;100.00;101431.75;673743;29;1100;-51
2022/02/23 00:49:07;;;;;;;9.55;3.08;;;;;;;3.74;100.00;101440.53;674328;29;899;-51
2022/02/23 00:49:28;;;;;;;10.02;3.38;;;;;;;3.69;100.00;101434.31;675606;29;773;-51
2022/02/23 00:49:49;;;;;;;9.90;3.28;;;;;;;3.65;100.00;101437.59;670889;29;4355;-51
2022/02/23 00:50:09;;;;;;;11.82;3.40;;;;;;;3.60;100.00;101433.97;673034;29;3399;-52
2022/02/23 00:50:30;;;;;;;10.50;3.03;;;;;;;3.55;100.00;101437.25;672810;29;1206;-54
2022/02/23 00:50:51;;;;;;;11.03;2.83;;;;;;;3.56;100.00;101431.28;670791;29;1518;-57
2022/02/23 00:51:12;;;;;;;9.93;2.85;;;;;;;3.58;100.00;101437.38;671148;29;932;-50
2022/02/23 00:51:32;;;;;;;10.87;3.10;;;;;;;3.62;100.00;101440.09;671099;29;778;-50
2022/02/23 00:51:53;;;;;;;9.80;2.83;;;;;;;3.57;100.00;101440.81;675878;29;1344;-53
2022/02/23 00:52:14;;;;;;;9.50;2.63;;;;;;;3.56;100.00;101438.16;676465;29;832;-53
2022/02/23 00:52:35;;;;;;;8.63;2.70;;;;;;;3.58;100.00;101441.66;673883;29;1340;-50
2022/02/23 00:52:55;;;;;;;8.50;2.80;;;;;;;3.58;100.00;101442.53;675130;29;4499;-51
2022/02/23 00:53:16;;;;;;;7.73;3.00;;;;;;;3.56;100.00;101435.56;676364;29;1547;-51
2022/02/23 00:53:37;;;;;;;11.20;3.25;;;;;;;3.54;100.00;101444.97;675343;29;1013;-55
2022/02/23 00:53:57;;;;;;;10.10;3.25;;;;;;;3.54;100.00;101438.06;673723;29;845;-50
2022/02/23 00:54:18;;;;;;;9.90;3.23;;;;;;;3.57;100.00;101437.31;674050;29;889;-54
2022/02/23 00:54:39;;;;;;;9.80;3.30;;;;;;;3.63;100.00;101434.97;673250;29;1163;-50
2022/02/23 00:54:59;;;;;;;10.18;3.00;;;;;;;3.65;100.00;101435.03;673931;29;837;-50
2022/02/23 00:55:20;;;;;;;9.15;3.05;;;;;;;3.59;100.00;101433.09;673615;29;1385;-51
2022/02/23 00:55:40;;;;;;;9.60;2.90;;;;;;;3.55;100.00;101441.56;673491;29;3153;-51
2022/02/23 00:56:00;;;;;;;9.93;2.93;;;;;;;3.56;100.00;101435.56;674999;29;4494;-50
2022/02/23 00:56:21;;;;;;;8.97;3.10;;;;;;;3.62;100.00;101440.09;676365;29;1004;-54
2022/02/23 00:56:41;;;;;;;8.40;3.07;;;;;;;3.58;100.00;101442.53;676054;29;1286;-52
2022/02/23 00:57:03;;;;;;;9.23;2.92;;;;;;;3.58;100.00;101444.25;676738;29;775;-54
2022/02/23 00:57:23;;;;;;;10.38;2.85;;;;;;;3.64;100.00;101448.75;676282;29;790;-52
2022/02/23 00:57:44;;;;;;;10.20;3.20;;;;;;;3.57;100.00;101448.56;675779;29;1196;-53
2022/02/23 00:58:04;;;;;;;10.20;3.10;;;;;;;3.50;100.00;101446.56;675845;29;833;-54
2022/02/23 00:58:24;;;;;;;10.18;2.90;;;;;;;3.45;100.00;101444.63;676397;29;3237;-51
2022/02/23 00:58:45;;;;;;;10.30;2.90;;;;;;;3.39;100.00;101445.28;675193;29;4657;-50
2022/02/23 00:59:06;;;;;;;8.82;2.92;;;;;;;3.39;100.00;101443.59;675822;29;1112;-51
2022/02/23 00:59:26;;;;;;;8.00;2.70;;;;;;;3.40;100.00;101447.03;675547;29;1326;-51
2022/02/23 00:59:47;;;;;;;11.43;3.10;;;;;;;3.36;100.00;101440.88;676164;29;1128;-52
2022/02/23 01:00:08;;;;;;;9.27;3.00;;;;;;;3.37;100.00;101455.56;676545;29;995;-53
2022/02/23 01:00:28;;;;;;;10.40;3.17;;;;;;;3.37;100.00;101452.09;676126;29;1210;-51
2022/02/23 01:00:49;;;;;;;10.43;3.08;;;;;;;3.41;100.00;101452.25;675531;29;1377;-50
2022/02/23 01:01:09;;;;;;;10.97;3.10;;;;;;;3.48;100.00;101458.56;676608;29;1387;-51
2022/02/23 01:01:29;;;;;;;10.82;3.20;;;;;;;3.45;100.00;101452.38;678157;29;3486;-51
2022/02/23 01:01:50;;;;;;;12.93;3.20;;;;;;;3.37;100.00;101447.81;675237;29;4431;-50
2022/02/23 01:02:10;;;;;;;10.70;3.20;;;;;;;3.35;100.00;101446.88;676291;29;1129;-51
2022/02/23 01:02:31;;;;;;;9.73;3.17;;;;;;;3.33;100.00;101455.41;675396;29;889;-52
2022/02/23 01:02:51;;;;;;;9.90;3.65;;;;;;;3.37;100.00;101449.53;675531;29;1136;-55
2022/02/23 01:03:12;;;;;;;10.00;3.70;;;;;;;3.45;100.00;101450.69;676474;29;754;-52
2022/02/23 01:03:32;;;;;;;10.30;3.08;;;;;;;3.49;100.00;101446.50;675836;29;917;-50
2022/02/23 01:03:52;;;;;;;8.53;2.90;;;;;;;3.52;100.00;101449.22;676109;29;926;-55
2022/02/23 01:04:13;;;;;;;8.80;3.05;;;;;;;3.48;100.00;101449.94;676602;29;3325;-50
2022/02/23 01:04:33;;;;;;;7.80;2.90;;;;;;;3.41;100.00;101446.22;675551;29;1123;-52
2022/02/23 01:04:54;;;;;;;10.57;2.80;;;;;;;3.41;100.00;101449.69;674970;29;4832;-51
2022/02/23 01:05:14;;;;;;;11.30;2.87;;;;;;;3.37;100.00;101446.94;675828;29;774;-50
2022/02/23 01:05:35;;;;;;;10.80;2.97;;;;;;;3.36;100.00;101452.91;676306;29;1023;-52
2022/02/23 01:05:56;;;;;;;7.40;2.85;;;;;;;3.36;100.00;101445.16;675523;29;1187;-51
2022/02/23 01:06:16;;;;;;;9.00;2.90;;;;;;;3.41;100.00;101438.47;676748;29;932;-51
2022/02/23 01:06:37;;;;;;;10.23;2.93;;;;;;;3.49;100.00;101446.50;675831;29;1918;-52
2022/02/23 01:06:57;;;;;;;10.40;3.20;;;;;;;3.39;100.00;101451.34;676149;29;3179;-51
2022/02/23 01:07:18;;;;;;;12.03;3.30;;;;;;;3.35;100.00;101445.97;676013;29;3592;-53
2022/02/23 01:07:38;;;;;;;10.73;3.10;;;;;;;3.29;100.00;101449.22;675495;29;1524;-51
2022/02/23 01:07:58;;;;;;;9.27;3.07;;;;;;;3.29;100.00;101445.78;675878;29;4678;-50
2022/02/23 01:08:19;;;;;;;9.73;2.97;;;;;;;3.37;100.00;101454.69;676885;29;916;-53
2022/02/23 01:08:39;;;;;;;7.82;2.70;;;;;;;3.39;100.00;101456.50;676090;29;1103;-53
2022/02/23 01:09:00;;;;;;;9.07;2.87;;;;;;;3.35;100.00;101457.22;678914;29;1231;-51
2022/02/23 01:09:20;;;;;;;8.77;2.73;;;;;;;3.33;100.00;101453.69;678708;29;2752;-51
2022/02/23 01:09:41;;;;;;;7.70;2.80;;;;;;;3.38;100.00;101459.03;678652;29;1056;-51
2022/02/23 01:10:04;;;;;;;8.93;2.77;;;;;;;3.36;100.00;101464.13;678206;29;2247;-50
2022/02/23 01:10:24;;;;;;;7.88;3.28;;;;;;;3.39;100.00;101465.94;674793;29;2011;-52
2022/02/23 01:10:45;;;;;;;8.30;2.90;;;;;;;3.40;100.00;101467.72;674265;29;5072;-53
2022/02/23 01:11:05;;;;;;;10.50;3.07;;;;;;;3.34;100.00;101463.22;673243;29;1126;-51
2022/02/23 01:11:25;;;;;;;10.85;2.83;;;;;;;3.30;100.00;101466.50;673911;29;732;-51
2022/02/23 01:11:46;;;;;;;8.57;2.73;;;;;;;3.34;100.00;101465.78;673967;29;1303;-53
2022/02/23 01:12:06;;;;;;;8.73;2.80;;;;;;;3.40;100.00;101465.13;676100;29;814;-50
2022/02/23 01:12:27;;;;;;;9.30;3.03;;;;;;;3.37;100.00;101468.47;678983;29;908;-53
2022/02/23 01:12:47;;;;;;;8.90;2.72;;;;;;;3.40;100.00;101462.56;678213;29;4101;-53
2022/02/23 01:13:08;;;;;;;8.13;2.90;;;;;;;3.34;100.00;101460.63;678148;29;4430;-50
2022/02/23 01:13:28;;;;;;;8.03;3.00;;;;;;;3.29;100.00;101464.72;678862;29;965;-51
2022/02/23 01:13:50;;;;;;;8.93;2.97;;;;;;;3.28;100.00;101468.16;678023;29;4658;-51
2022/02/23 01:14:11;;;;;;;8.30;2.60;;;;;;;3.36;100.00;101464.13;678880;29;1039;-52
2022/02/23 01:14:31;;;;;;;9.00;2.70;;;;;;;3.40;100.00;101467.72;679066;29;998;-52
2022/02/23 01:14:52;;;;;;;8.07;2.70;;;;;;;3.39;100.00;101468.53;677200;29;1007;-50
2022/02/23 01:15:12;;;;;;;12.20;2.80;;;;;;;3.36;100.00;101468.44;676308;29;888;-50
2022/02/23 01:15:34;;;;;;;13.20;2.87;;;;;;;3.29;100.00;101469.91;676290;29;3708;-51
2022/02/23 01:15:54;;;;;;;9.77;3.10;;;;;;;3.25;100.00;101473.19;674673;29;1282;-50
2022/02/23 01:16:15;;;;;;;7.78;2.80;;;;;;;3.29;100.00;101475.06;675838;29;1178;-50
2022/02/23 01:16:36;;;;;;;10.10;2.65;;;;;;;3.37;100.00;101468.47;676226;29;1103;-51
2022/02/23 01:16:57;;;;;;;10.30;2.67;;;;;;;3.38;100.00;101464.22;675895;29;5079;-53
2022/02/23 01:17:17;;;;;;;8.73;2.63;;;;;;;3.32;100.00;101470.00;675977;29;987;-51
2022/02/23 01:17:39;;;;;;;8.53;2.70;;;;;;;3.34;100.00;101465.78;676057;29;1039;-54
2022/02/23 01:17:59;;;;;;;9.32;2.67;;;;;;;3.31;100.00;101472.53;676713;29;1031;-51
2022/02/23 01:18:20;;;;;;;9.45;2.70;;;;;;;3.31;100.00;101473.44;678694;29;3444;-50
2022/02/23 01:18:40;;;;;;;8.67;2.90;;;;;;;3.30;100.00;101463.91;675533;29;3712;-51
2022/02/23 01:19:01;;;;;;;7.43;3.10;;;;;;;3.23;100.00;101475.72;676086;29;1195;-53
2022/02/23 01:19:21;;;;;;;9.50;3.10;;;;;;;3.18;100.00;101476.38;675780;29;877;-52
2022/02/23 01:19:43;;;;;;;8.40;2.88;;;;;;;3.21;100.00;101469.63;673018;29;1091;-51
2022/02/23 01:20:05;;;;;;;9.77;3.25;;;;;;;3.27;100.00;101474.13;670661;29;4730;-51
2022/02/23 01:20:25;;;;;;;10.95;3.22;;;;;;;3.25;100.00;101468.00;674052;29;968;-50
2022/02/23 01:20:46;;;;;;;8.57;2.70;;;;;;;3.30;100.00;101474.25;675746;29;1031;-53
2022/02/23 01:21:07;;;;;;;10.52;2.97;;;;;;;3.38;100.00;101475.41;675445;29;2012;-51
2022/02/23 01:21:28;;;;;;;9.93;2.85;;;;;;;3.44;100.00;101472.19;673150;29;2171;-51
2022/02/23 01:21:48;;;;;;;8.38;2.50;;;;;;;3.41;100.00;101472.06;673540;29;1351;-51
2022/02/23 01:22:09;;;;;;;8.07;2.70;;;;;;;3.41;100.00;101475.53;676496;29;947;-50
2022/02/23 01:22:29;;;;;;;7.85;2.60;;;;;;;3.37;100.00;101473.66;676131;29;913;-51
2022/02/23 01:22:52;;;;;;;7.90;2.90;;;;;;;3.32;100.00;101477.75;675307;29;4864;-52
2022/02/23 01:23:12;;;;;;;6.93;2.67;;;;;;;3.38;100.00;101478.00;676928;29;984;-50
2022/02/23 01:23:33;;;;;;;7.60;2.50;;;;;;;3.36;100.00;101473.59;676344;29;888;-51
2022/02/23 01:23:53;;;;;;;8.47;2.80;;;;;;;3.27;100.00;101478.41;675535;29;3481;-51
2022/02/23 01:24:14;;;;;;;9.33;2.70;;;;;;;3.22;100.00;101483.41;675644;29;3671;-50
2022/02/23 01:24:34;;;;;;;9.13;2.72;;;;;;;3.24;100.00;101486.94;675740;29;1257;-50
2022/02/23 01:24:55;;;;;;;8.63;2.70;;;;;;;3.28;100.00;101481.09;676483;29;1264;-51
2022/02/23 01:25:15;;;;;;;9.23;2.60;;;;;;;3.21;100.00;101481.66;676479;29;884;-51
2022/02/23 01:25:36;;;;;;;9.10;2.70;;;;;;;3.15;100.00;101482.28;678426;29;1443;-52
2022/02/23 01:25:57;;;;;;;7.65;2.53;;;;;;;3.22;100.00;101483.41;677907;29;4445;-52
2022/02/23 01:26:17;;;;;;;8.85;2.90;;;;;;;3.28;100.00;101483.66;676707;29;1096;-52
2022/02/23 01:26:37;;;;;;;8.63;2.93;;;;;;;3.25;100.00;101480.94;675617;29;1922;-54
2022/02/23 01:26:58;;;;;;;9.75;2.80;;;;;;;3.22;100.00;101484.28;675840;29;3209;-51
2022/02/23 01:27:18;;;;;;;10.03;3.00;;;;;;;3.29;100.00;101485.41;675762;29;1450;-53
2022/02/23 01:27:38;;;;;;;10.20;3.00;;;;;;;3.29;100.00;101481.94;675387;29;1270;-53
2022/02/23 01:28:01;;;;;;;10.75;2.80;;;;;;;3.28;100.00;101481.09;676070;29;912;-51
2022/02/23 01:28:22;;;;;;;9.43;3.08;;;;;;;3.28;100.00;101483.66;676102;29;1007;-50
2022/02/23 01:28:42;;;;;;;8.75;3.10;;;;;;;3.26;100.00;101484.44;676384;29;1409;-50
2022/02/23 01:29:03;;;;;;;8.30;2.70;;;;;;;3.30;100.00;101492.34;675655;29;4847;-50
2022/02/23 01:29:23;;;;;;;7.68;2.80;;;;;;;3.33;100.00;101486.41;676453;29;770;-52
2022/02/23 01:29:44;;;;;;;8.47;2.80;;;;;;;3.30;100.00;101481.13;675482;29;3290;-51
2022/02/23 01:30:05;;;;;;;9.73;2.60;;;;;;;3.35;100.00;101487.34;673495;29;1433;-51
2022/02/23 01:30:26;;;;;;;7.82;2.63;;;;;;;3.43;100.00;101483.34;673318;29;1276;-50
2022/02/23 01:30:46;;;;;;;8.25;2.75;;;;;;;3.40;100.00;101489.28;673850;29;1062;-52
2022/02/23 01:31:07;;;;;;;7.60;2.40;;;;;;;3.43;100.00;101488.50;673651;29;1240;-52
2022/02/23 01:31:28;;;;;;;8.07;2.40;;;;;;;3.41;100.00;101491.03;673418;29;1103;-50
2022/02/23 01:31:49;;;;;;;7.95;2.47;;;;;;;3.39;100.00;101487.53;672995;29;4892;-50
2022/02/23 01:32:09;;;;;;;8.57;2.60;;;;;;;3.33;100.00;101487.28;673892;29;825;-52
2022/02/23 01:32:30;;;;;;;8.30;2.60;;;;;;;3.37;100.00;101489.16;675794;29;3371;-51
2022/02/23 01:32:50;;;;;;;8.93;2.60;;;;;;;3.47;100.00;101481.75;672270;29;2508;-52
2022/02/23 01:33:10;;;;;;;8.85;2.88;;;;;;;3.51;100.00;101491.41;673358;29;1271;-51
2022/02/23 01:33:31;;;;;;;8.37;2.73;;;;;;;3.50;100.00;101490.53;673931;29;881;-51
2022/02/23 01:33:51;;;;;;;10.77;2.63;;;;;;;3.38;100.00;101485.75;676221;29;926;-53
2022/02/23 01:34:12;;;;;;;7.97;2.60;;;;;;;3.33;100.00;101492.44;675340;29;829;-51
2022/02/23 01:34:32;;;;;;;7.43;2.50;;;;;;;3.29;100.00;101490.56;675423;29;993;-54
2022/02/23 01:34:53;;;;;;;8.47;2.40;;;;;;;3.34;100.00;101490.78;677694;29;4347;-51
2022/02/23 01:35:13;;;;;;;8.38;2.47;;;;;;;3.38;100.00;101493.50;678734;29;3279;-50
2022/02/23 01:35:33;;;;;;;7.33;2.30;;;;;;;3.34;100.00;101494.22;678426;29;2284;-52
2022/02/23 01:35:54;;;;;;;7.47;2.40;;;;;;;3.26;100.00;101495.63;677820;29;1275;-51
2022/02/23 01:36:14;;;;;;;7.33;2.40;;;;;;;3.20;100.00;101492.81;675311;29;1160;-51
2022/02/23 01:36:35;;;;;;;7.93;2.80;;;;;;;3.26;100.00;101493.03;676313;29;996;-51
2022/02/23 01:36:55;;;;;;;8.20;2.63;;;;;;;3.30;100.00;101492.34;675940;29;1227;-50
2022/02/23 01:37:15;;;;;;;10.43;2.88;;;;;;;3.22;100.00;101493.75;676217;29;892;-51
2022/02/23 01:37:36;;;;;;;10.33;2.60;;;;;;;3.20;100.00;101501.44;676567;29;973;-53
2022/02/23 01:37:56;;;;;;;7.40;2.43;;;;;;;3.15;100.00;101490.03;675749;29;5017;-53
2022/02/23 01:38:17;;;;;;;7.57;2.60;;;;;;;3.17;100.00;101497.84;675855;29;3467;-51